createdAt,value
2022-11-16T00:02:06.699Z,13.95
2022-11-16T00:04:33.216Z,14.65
2022-11-16T00:07:02.626Z,12.57
2022-11-16T00:09:32.050Z,10.15
2022-11-16T00:12:01.964Z,9.00
2022-11-16T00:14:30.682Z,10.40
2022-11-16T00:16:58.038Z,9.82
2022-11-16T00:19:26.062Z,10.32
2022-11-16T00:21:53.206Z,15.25
2022-11-16T00:24:21.378Z,13.43
2022-11-16T00:26:48.457Z,13.48
2022-11-16T00:29:20.649Z,14.77
2022-11-16T00:31:48.273Z,10.77
2022-11-16T00:34:15.210Z,8.82
2022-11-16T00:36:42.038Z,7.63
2022-11-16T00:39:14.108Z,10.15
2022-11-16T00:41:41.669Z,11.85
2022-11-16T00:44:08.644Z,11.02
2022-11-16T00:46:35.128Z,13.18
2022-11-16T00:49:01.679Z,12.23
2022-11-16T00:51:28.637Z,10.65
2022-11-16T00:53:55.182Z,9.65
2022-11-16T00:56:21.564Z,10.65
2022-11-16T00:58:47.978Z,10.85
2022-11-16T01:01:15.067Z,11.55
2022-11-16T01:03:41.933Z,10.73
2022-11-16T01:06:10.503Z,8.18
2022-11-16T01:08:38.629Z,10.80
2022-11-16T01:11:25.564Z,12.80
2022-11-16T01:13:52.236Z,11.43
2022-11-16T01:16:21.510Z,14.60
2022-11-16T01:18:49.985Z,25.88
2022-11-16T01:21:17.232Z,25.55
2022-11-16T01:23:43.713Z,15.10
2022-11-16T01:26:10.144Z,14.57
2022-11-16T01:28:37.003Z,12.55
2022-11-16T01:31:03.925Z,12.52
2022-11-16T01:33:30.895Z,8.55
2022-11-16T01:35:57.413Z,12.02
2022-11-16T01:38:29.599Z,18.08
2022-11-16T01:40:56.530Z,19.42
2022-11-16T01:43:25.178Z,13.20
2022-11-16T01:45:51.686Z,15.73
2022-11-16T01:48:24.134Z,12.73
2022-11-16T01:50:51.809Z,8.50
2022-11-16T01:53:18.606Z,10.32
2022-11-16T01:55:47.069Z,12.27
2022-11-16T01:58:18.996Z,7.90
2022-11-16T02:00:45.672Z,11.93
2022-11-16T02:03:12.134Z,11.05
2022-11-16T02:06:13.731Z,14.48
2022-11-16T02:09:17.416Z,13.40
2022-11-16T02:11:49.831Z,13.43
2022-11-16T02:14:42.570Z,13.68
2022-11-16T02:17:21.245Z,9.60
2022-11-16T02:20:06.521Z,7.63
2022-11-16T02:23:22.949Z,9.57
2022-11-16T02:26:17.084Z,12.43
2022-11-16T02:28:46.500Z,8.40
2022-11-16T02:31:17.382Z,10.40
2022-11-16T02:33:46.646Z,12.98
2022-11-16T02:36:17.517Z,9.57
2022-11-16T02:39:00.737Z,11.05
2022-11-16T02:41:32.150Z,9.13
2022-11-16T02:44:11.553Z,11.57
2022-11-16T02:46:42.761Z,9.50
2022-11-16T02:49:17.693Z,9.00
2022-11-16T02:51:46.999Z,8.45
2022-11-16T02:54:21.915Z,11.60
2022-11-16T02:57:15.805Z,10.50
2022-11-16T02:59:56.461Z,8.63
2022-11-16T03:02:32.327Z,9.85
2022-11-16T03:05:07.886Z,10.80
2022-11-16T03:07:53.260Z,9.68
2022-11-16T03:10:40.180Z,10.05
2022-11-16T03:13:10.323Z,9.02
2022-11-16T03:15:39.397Z,10.00
2022-11-16T03:18:08.748Z,12.00
2022-11-16T03:20:38.562Z,8.73
2022-11-16T03:23:10.387Z,12.43
2022-11-16T03:25:51.175Z,7.22
2022-11-16T03:28:36.651Z,11.20
2022-11-16T03:31:13.865Z,8.45
2022-11-16T03:33:46.048Z,9.32
2022-11-16T03:36:17.328Z,9.07
2022-11-16T03:38:47.293Z,10.45
2022-11-16T03:41:14.856Z,11.77
2022-11-16T03:43:44.368Z,12.07
2022-11-16T03:46:11.894Z,13.55
2022-11-16T03:48:40.385Z,10.80
2022-11-16T03:51:09.335Z,10.35
2022-11-16T03:53:36.181Z,12.18
2022-11-16T03:56:03.562Z,10.77
2022-11-16T03:58:30.278Z,11.15
2022-11-16T04:00:56.865Z,12.32
2022-11-16T04:03:23.340Z,13.00
2022-11-16T04:06:08.546Z,12.15
2022-11-16T04:08:53.222Z,7.97
2022-11-16T04:11:40.551Z,10.98
2022-11-16T04:14:31.451Z,9.38
2022-11-16T04:17:16.382Z,9.75
2022-11-16T04:20:01.069Z,17.45
2022-11-16T04:23:03.799Z,11.52
2022-11-16T04:25:34.462Z,11.55
2022-11-16T04:28:13.456Z,13.32
2022-11-16T04:31:04.773Z,10.73
2022-11-16T04:33:50.642Z,13.68
2022-11-16T04:36:36.594Z,13.35
2022-11-16T04:39:03.916Z,10.98
2022-11-16T04:41:53.294Z,13.48
2022-11-16T04:44:19.836Z,10.93
2022-11-16T04:47:05.156Z,13.93
2022-11-16T04:49:31.966Z,11.73
2022-11-16T04:51:59.060Z,12.35
2022-11-16T04:54:25.640Z,13.40
2022-11-16T04:56:52.209Z,15.30
2022-11-16T04:59:18.585Z,14.70
2022-11-16T05:02:03.467Z,12.32
2022-11-16T05:04:29.862Z,12.90
2022-11-16T05:06:56.338Z,12.95
2022-11-16T05:09:22.754Z,15.18
2022-11-16T05:11:49.187Z,12.63
2022-11-16T05:14:15.606Z,12.13
2022-11-16T05:16:42.035Z,10.95
2022-11-16T05:19:27.157Z,13.50
2022-11-16T05:21:53.683Z,10.82
2022-11-16T05:24:35.269Z,16.70
2022-11-16T05:27:07.424Z,12.40
2022-11-16T05:29:34.874Z,12.15
2022-11-16T05:32:02.424Z,11.95
2022-11-16T05:34:28.822Z,13.02
2022-11-16T05:36:56.106Z,13.18
2022-11-16T05:39:23.052Z,13.93
2022-11-16T05:41:49.451Z,11.15
2022-11-16T05:44:16.725Z,14.10
2022-11-16T05:46:44.186Z,13.45
2022-11-16T05:49:12.302Z,17.10
2022-11-16T05:51:41.785Z,12.98
2022-11-16T05:54:08.786Z,11.07
2022-11-16T05:56:35.447Z,13.80
2022-11-16T05:59:01.945Z,15.48
2022-11-16T06:01:28.447Z,13.98
2022-11-16T06:03:55.160Z,14.02
2022-11-16T06:06:21.726Z,16.38
2022-11-16T06:08:48.198Z,15.75
2022-11-16T06:11:14.663Z,16.33
2022-11-16T06:13:41.085Z,15.93
2022-11-16T06:16:07.990Z,14.82
2022-11-16T06:18:38.562Z,16.50
2022-11-16T06:21:05.222Z,17.08
2022-11-16T06:23:31.743Z,25.92
2022-11-16T06:25:58.955Z,16.73
2022-11-16T06:28:25.950Z,20.75
2022-11-16T06:30:52.391Z,18.85
2022-11-16T06:33:19.098Z,16.30
2022-11-16T06:35:45.938Z,15.40
2022-11-16T06:38:18.673Z,15.73
2022-11-16T06:40:46.379Z,16.30
2022-11-16T06:43:12.751Z,14.88
2022-11-16T06:45:39.392Z,15.80
2022-11-16T06:48:05.862Z,16.85
2022-11-16T06:50:32.325Z,17.55
2022-11-16T06:53:00.816Z,18.00
2022-11-16T06:55:28.589Z,17.70
2022-11-16T06:57:55.214Z,14.35
2022-11-16T07:00:21.789Z,16.30
2022-11-16T07:02:48.178Z,15.77
2022-11-16T07:05:14.737Z,18.65
2022-11-16T07:07:41.130Z,18.08
2022-11-16T07:10:08.054Z,18.88
2022-11-16T07:12:34.473Z,17.95
2022-11-16T07:15:00.844Z,17.67
2022-11-16T07:17:27.248Z,15.75
2022-11-16T07:19:53.619Z,18.48
2022-11-16T07:22:20.012Z,15.20
2022-11-16T07:24:46.409Z,17.88
2022-11-16T07:27:13.439Z,16.95
2022-11-16T07:29:39.930Z,16.92
2022-11-16T07:32:06.365Z,15.10
2022-11-16T07:34:32.721Z,17.20
2022-11-16T07:36:59.470Z,19.35
2022-11-16T07:39:25.900Z,24.60
2022-11-16T07:41:53.591Z,16.02
2022-11-16T07:44:20.878Z,15.93
2022-11-16T07:46:48.328Z,15.48
2022-11-16T07:49:16.801Z,15.93
2022-11-16T07:51:43.429Z,16.02
2022-11-16T07:54:13.651Z,16.30
2022-11-16T07:56:40.560Z,17.00
2022-11-16T07:59:07.088Z,16.00
2022-11-16T08:01:33.661Z,19.55
2022-11-16T08:04:03.554Z,18.33
2022-11-16T08:06:31.626Z,20.80
2022-11-16T08:08:59.039Z,14.85
2022-11-16T08:11:26.531Z,22.48
2022-11-16T08:13:53.214Z,15.77
2022-11-16T08:16:22.068Z,17.40
2022-11-16T08:18:48.743Z,17.67
2022-11-16T08:21:16.941Z,19.13
2022-11-16T08:23:44.889Z,19.27
2022-11-16T08:26:17.836Z,21.52
2022-11-16T08:28:46.324Z,19.95
2022-11-16T08:31:18.833Z,19.27
2022-11-16T08:33:45.315Z,20.95
2022-11-16T08:36:17.219Z,24.48
2022-11-16T08:38:44.959Z,20.20
2022-11-16T08:41:11.367Z,19.92
2022-11-16T08:43:39.534Z,18.90
2022-11-16T08:46:10.271Z,15.70
2022-11-16T08:48:37.550Z,19.15
2022-11-16T08:51:20.864Z,20.58
2022-11-16T08:53:49.477Z,23.58
2022-11-16T08:56:18.214Z,20.00
2022-11-16T08:58:47.101Z,14.65
2022-11-16T09:01:19.441Z,11.60
2022-11-16T09:03:46.449Z,10.70
2022-11-16T09:06:13.506Z,13.07
2022-11-16T09:08:41.963Z,7.65
2022-11-16T09:11:10.884Z,6.47
2022-11-16T09:13:37.370Z,6.30
2022-11-16T09:16:04.727Z,3.35
2022-11-16T09:18:31.775Z,4.90
2022-11-16T09:20:58.677Z,4.68
2022-11-16T09:23:25.700Z,7.85
2022-11-16T09:25:53.119Z,4.25
2022-11-16T09:28:20.528Z,4.63
2022-11-16T09:30:50.122Z,6.07
2022-11-16T09:33:16.583Z,6.65
2022-11-16T09:35:43.124Z,6.15
2022-11-16T09:38:10.030Z,5.80
2022-11-16T09:40:46.191Z,6.05
2022-11-16T09:43:24.865Z,4.97
2022-11-16T09:46:17.912Z,4.97
2022-11-16T09:48:44.842Z,5.30
2022-11-16T09:51:15.639Z,3.63
2022-11-16T09:53:51.277Z,5.53
2022-11-16T09:56:26.091Z,11.25
2022-11-16T09:59:07.681Z,5.45
2022-11-16T10:02:08.265Z,6.35
2022-11-16T10:04:47.152Z,5.57
2022-11-16T10:07:16.728Z,5.05
2022-11-16T10:09:45.054Z,6.88
2022-11-16T10:12:14.322Z,5.03
2022-11-16T10:14:52.302Z,5.43
2022-11-16T10:17:40.032Z,5.15
2022-11-16T10:20:45.541Z,7.20
2022-11-16T10:23:30.424Z,8.98
2022-11-16T10:26:05.611Z,7.78
2022-11-16T10:28:47.680Z,6.70
2022-11-16T10:31:34.007Z,4.22
2022-11-16T10:34:05.568Z,5.30
2022-11-16T10:36:35.371Z,5.55
2022-11-16T10:39:02.608Z,5.60
2022-11-16T10:41:40.134Z,5.13
2022-11-16T10:44:33.940Z,3.28
2022-11-16T10:47:12.315Z,4.55
2022-11-16T10:49:50.277Z,3.95
2022-11-16T10:52:16.701Z,3.40
2022-11-16T10:54:44.538Z,3.38
2022-11-16T10:57:17.822Z,3.05
2022-11-16T10:59:47.389Z,3.08
2022-11-16T11:02:27.768Z,7.13
2022-11-16T11:05:16.128Z,4.82
2022-11-16T11:07:46.777Z,3.25
2022-11-16T11:10:50.731Z,4.20
2022-11-16T11:13:26.165Z,4.38
2022-11-16T11:16:02.262Z,3.58
2022-11-16T11:18:30.043Z,6.97
2022-11-16T11:21:19.360Z,4.40
2022-11-16T11:23:51.146Z,4.28
2022-11-16T11:26:37.566Z,4.95
2022-11-16T11:29:19.201Z,3.45
2022-11-16T11:31:50.224Z,3.10
2022-11-16T11:34:21.690Z,4.78
2022-11-16T11:36:56.962Z,4.88
2022-11-16T11:39:23.327Z,4.82
2022-11-16T11:42:06.574Z,4.45
2022-11-16T11:44:50.448Z,5.72
2022-11-16T11:47:56.067Z,4.78
2022-11-16T11:50:19.661Z,5.90
2022-11-16T11:53:06.189Z,7.97
2022-11-16T11:55:33.472Z,18.60
2022-11-16T11:58:02.772Z,4.75
2022-11-16T12:00:43.630Z,3.92
2022-11-16T12:03:35.561Z,5.95
2022-11-16T12:06:11.075Z,4.68
2022-11-16T12:08:50.503Z,6.95
2022-11-16T12:11:33.517Z,5.03
2022-11-16T12:14:11.053Z,5.80
2022-11-16T12:16:49.611Z,5.85
2022-11-16T12:19:27.936Z,7.68
2022-11-16T12:22:09.627Z,5.38
2022-11-16T12:25:00.541Z,4.45
2022-11-16T12:27:45.563Z,4.75
2022-11-16T12:30:16.489Z,6.85
2022-11-16T12:32:52.171Z,8.52
2022-11-16T12:35:36.942Z,6.20
2022-11-16T12:38:26.561Z,4.43
2022-11-16T12:41:31.404Z,5.30
2022-11-16T12:44:16.409Z,8.98
2022-11-16T12:47:10.861Z,3.05
2022-11-16T12:49:52.552Z,3.90
2022-11-16T12:52:47.770Z,3.70
2022-11-16T12:58:19.100Z,4.93
2022-11-16T13:00:59.776Z,6.97
2022-11-16T13:03:58.079Z,3.15
2022-11-16T13:06:39.708Z,5.43
2022-11-16T13:09:16.686Z,4.03
2022-11-16T13:11:58.141Z,4.32
2022-11-16T13:14:39.000Z,5.28
2022-11-16T13:17:07.527Z,4.97
2022-11-16T13:19:39.840Z,5.38
2022-11-16T13:22:21.837Z,9.50
2022-11-16T13:25:14.584Z,8.63
2022-11-16T13:27:48.062Z,3.47
2022-11-16T13:30:19.361Z,4.60
2022-11-16T13:32:51.549Z,2.85
2022-11-16T13:35:18.725Z,2.43
2022-11-16T13:37:47.481Z,5.90
2022-11-16T13:40:27.165Z,2.92
2022-11-16T13:43:11.941Z,5.10
2022-11-16T13:45:51.314Z,4.38
2022-11-16T13:48:21.179Z,4.47
2022-11-16T13:51:00.582Z,4.97
2022-11-16T13:56:29.056Z,4.32
2022-11-16T13:58:57.447Z,8.00
2022-11-16T14:01:24.012Z,5.53
2022-11-16T14:03:52.543Z,6.60
2022-11-16T14:06:18.933Z,3.85
2022-11-16T14:08:53.108Z,5.00
2022-11-16T14:11:36.834Z,3.13
2022-11-16T14:14:10.851Z,3.97
2022-11-16T14:16:51.122Z,7.43
2022-11-16T14:19:44.476Z,5.43
2022-11-16T14:22:32.052Z,7.57
2022-11-16T14:25:11.013Z,8.27
2022-11-16T14:27:51.550Z,18.75
2022-11-16T14:30:43.256Z,4.22
2022-11-16T14:33:28.285Z,5.95
2022-11-16T14:35:54.845Z,8.15
2022-11-16T14:38:33.029Z,5.88
2022-11-16T14:41:02.620Z,5.53
2022-11-16T14:43:49.484Z,6.57
2022-11-16T14:46:28.054Z,9.30
2022-11-16T14:48:56.577Z,5.15
2022-11-16T14:51:29.197Z,5.05
2022-11-16T14:54:16.487Z,6.35
2022-11-16T14:56:57.677Z,9.05
2022-11-16T14:59:24.845Z,8.63
2022-11-16T15:01:52.429Z,8.80
2022-11-16T15:04:19.797Z,10.40
2022-11-16T15:06:58.247Z,9.60
2022-11-16T15:09:33.077Z,10.70
2022-11-16T15:12:21.362Z,15.85
2022-11-16T15:14:51.205Z,6.72
2022-11-16T15:17:22.171Z,7.32
2022-11-16T15:20:00.283Z,7.38
2022-11-16T15:22:29.699Z,9.05
2022-11-16T15:25:01.138Z,10.35
2022-11-16T15:27:38.063Z,10.20
2022-11-16T15:30:13.703Z,5.90
2022-11-16T15:32:44.383Z,11.60
2022-11-16T15:35:33.031Z,8.50
2022-11-16T15:38:17.732Z,6.85
2022-11-16T15:41:00.220Z,7.60
2022-11-16T15:43:31.224Z,7.85
2022-11-16T15:45:59.805Z,11.82
2022-11-16T15:48:27.693Z,14.23
2022-11-16T15:50:58.934Z,13.63
2022-11-16T15:53:35.842Z,15.30
2022-11-16T15:56:06.041Z,11.88
2022-11-16T15:58:38.633Z,17.40
2022-11-16T16:01:05.244Z,13.50
2022-11-16T16:03:34.819Z,12.50
2022-11-16T16:06:02.271Z,13.68
2022-11-16T16:08:39.388Z,11.63
2022-11-16T16:11:14.940Z,9.40
2022-11-16T16:13:44.143Z,9.75
2022-11-16T16:16:31.322Z,10.38
2022-11-16T16:19:09.281Z,12.88
2022-11-16T16:21:45.437Z,12.38
2022-11-16T16:24:34.807Z,10.88
2022-11-16T16:27:01.353Z,14.07
2022-11-16T16:29:28.517Z,12.98
2022-11-16T16:31:58.502Z,19.40
2022-11-16T16:34:24.892Z,28.38
2022-11-16T16:36:56.472Z,51.45
2022-11-16T16:39:22.903Z,31.17
2022-11-16T16:41:49.810Z,21.77
2022-11-16T16:44:17.059Z,15.50
2022-11-16T16:46:43.418Z,14.18
2022-11-16T16:49:09.860Z,16.45
2022-11-16T16:51:36.313Z,10.77
2022-11-16T16:54:02.758Z,11.90
2022-11-16T16:56:29.132Z,12.48
2022-11-16T16:58:55.554Z,20.95
2022-11-16T17:01:22.060Z,13.18
2022-11-16T17:03:48.532Z,10.27
2022-11-16T17:06:15.061Z,16.88
2022-11-16T17:08:41.556Z,14.52
2022-11-16T17:11:08.986Z,8.35
2022-11-16T17:13:35.871Z,9.10
2022-11-16T17:16:04.975Z,11.60
2022-11-16T17:18:31.427Z,14.93
2022-11-16T17:21:06.588Z,9.57
2022-11-16T17:23:34.004Z,16.98
2022-11-16T17:26:04.556Z,24.48
2022-11-16T17:28:31.211Z,20.02
2022-11-16T17:31:05.428Z,23.30
2022-11-16T17:33:36.498Z,19.88
2022-11-16T17:36:04.003Z,20.33
2022-11-16T17:38:32.395Z,18.92
2022-11-16T17:41:06.861Z,22.33
2022-11-16T17:43:34.327Z,21.98
2022-11-16T17:46:02.990Z,29.63
2022-11-16T17:48:29.372Z,24.63
2022-11-16T17:50:55.829Z,25.75
2022-11-16T17:53:22.295Z,25.08
2022-11-16T17:55:48.683Z,28.08
2022-11-16T17:58:15.092Z,31.85
2022-11-16T18:00:41.500Z,22.83
2022-11-16T18:03:07.929Z,27.08
2022-11-16T18:05:34.322Z,19.80
2022-11-16T18:08:00.751Z,18.65
2022-11-16T18:10:27.186Z,19.33
2022-11-16T18:12:53.578Z,15.98
2022-11-16T18:15:28.433Z,22.63
2022-11-16T18:17:56.716Z,19.98
2022-11-16T18:20:24.271Z,16.77
2022-11-16T18:22:50.647Z,15.00
2022-11-16T18:25:17.071Z,16.38
2022-11-16T18:27:43.508Z,28.17
2022-11-16T18:30:10.467Z,28.73
2022-11-16T18:32:37.172Z,32.65
2022-11-16T18:35:09.406Z,25.02
2022-11-16T18:37:36.222Z,17.02
2022-11-16T18:40:03.690Z,18.17
2022-11-16T18:42:30.237Z,20.52
2022-11-16T18:44:56.794Z,18.98
2022-11-16T18:47:23.174Z,18.42
2022-11-16T18:49:49.597Z,18.20
2022-11-16T18:52:15.967Z,24.27
2022-11-16T18:54:42.362Z,21.05
2022-11-16T18:57:09.561Z,24.70
2022-11-16T18:59:35.967Z,22.45
2022-11-16T19:02:02.395Z,21.83
2022-11-16T19:04:28.857Z,20.92
2022-11-16T19:06:55.307Z,21.58
2022-11-16T19:09:21.726Z,22.35
2022-11-16T19:11:48.407Z,17.60
2022-11-16T19:14:14.803Z,23.65
2022-11-16T19:16:49.003Z,24.92
2022-11-16T19:19:17.711Z,24.60
2022-11-16T19:21:44.070Z,21.23
2022-11-16T19:24:10.501Z,22.27
2022-11-16T19:26:36.891Z,22.35
2022-11-16T19:29:04.246Z,23.02
2022-11-16T19:31:32.360Z,25.20
2022-11-16T19:34:05.032Z,20.50
2022-11-16T19:36:32.674Z,19.48
2022-11-16T19:38:59.330Z,16.55
2022-11-16T19:41:27.311Z,48.38
2022-11-16T19:43:59.734Z,17.60
2022-11-16T19:46:31.124Z,32.67
2022-11-16T19:48:58.782Z,24.25
2022-11-16T19:51:27.721Z,61.42
2022-11-16T19:53:54.728Z,53.55
2022-11-16T19:56:22.936Z,28.85
2022-11-16T19:58:49.803Z,30.95
2022-11-16T20:01:19.513Z,49.90
2022-11-16T20:03:47.578Z,66.85
2022-11-16T20:06:16.868Z,61.65
2022-11-16T20:08:47.603Z,54.60
2022-11-16T20:11:17.724Z,50.47
2022-11-16T20:13:44.129Z,49.30
2022-11-16T20:16:12.564Z,100.95
2022-11-16T20:18:40.360Z,67.47
2022-11-16T20:21:08.194Z,51.30
2022-11-16T20:23:35.552Z,50.03
2022-11-16T20:26:09.950Z,28.85
2022-11-16T20:28:38.052Z,23.40
2022-11-16T20:31:08.060Z,29.77
2022-11-16T20:33:35.043Z,28.38
2022-11-16T20:36:07.890Z,23.92
2022-11-16T20:38:35.680Z,25.00
2022-11-16T20:41:09.072Z,22.30
2022-11-16T20:43:36.223Z,24.15
2022-11-16T20:46:02.847Z,24.45
2022-11-16T20:48:29.265Z,22.60
2022-11-16T20:50:55.670Z,23.20
2022-11-16T20:53:22.525Z,21.58
2022-11-16T20:55:50.027Z,22.30
2022-11-16T20:58:22.464Z,19.95
2022-11-16T21:00:50.193Z,21.17
2022-11-16T21:03:17.080Z,23.80
2022-11-16T21:05:45.381Z,22.30
2022-11-16T21:08:12.980Z,19.40
2022-11-16T21:10:39.826Z,22.48
2022-11-16T21:13:29.413Z,21.65
2022-11-16T21:16:02.313Z,22.50
2022-11-16T21:18:30.903Z,25.05
2022-11-16T21:21:01.976Z,25.63
2022-11-16T21:23:30.792Z,19.02
2022-11-16T21:26:11.100Z,15.02
2022-11-16T21:28:38.533Z,18.75
2022-11-16T21:31:07.572Z,14.60
2022-11-16T21:33:34.315Z,16.52
2022-11-16T21:36:05.634Z,14.73
2022-11-16T21:38:33.078Z,16.60
2022-11-16T21:41:00.336Z,14.32
2022-11-16T21:43:27.326Z,16.58
2022-11-16T21:46:01.584Z,15.90
2022-11-16T21:48:27.978Z,15.60
2022-11-16T21:51:10.673Z,16.83
2022-11-16T21:53:37.791Z,16.33
2022-11-16T21:56:05.610Z,14.90
2022-11-16T21:58:32.364Z,15.80
2022-11-16T22:01:02.325Z,14.23
2022-11-16T22:03:30.879Z,14.90
2022-11-16T22:06:18.010Z,15.13
2022-11-16T22:08:45.350Z,13.73
2022-11-16T22:11:12.806Z,15.35
2022-11-16T22:13:39.469Z,14.07
2022-11-16T22:16:10.941Z,13.68
2022-11-16T22:18:38.107Z,13.38
2022-11-16T22:21:05.724Z,13.05
2022-11-16T22:23:32.937Z,15.45
2022-11-16T22:26:08.297Z,11.98
2022-11-16T22:28:36.297Z,13.68
2022-11-16T22:31:13.889Z,11.23
2022-11-16T22:33:40.968Z,12.23
2022-11-16T22:36:09.716Z,13.35
2022-11-16T22:38:36.595Z,11.73
2022-11-16T22:41:03.455Z,12.55
2022-11-16T22:43:31.073Z,12.07
2022-11-16T22:45:59.014Z,11.75
2022-11-16T22:48:32.357Z,25.40
2022-11-16T22:51:23.342Z,14.60
2022-11-16T22:53:59.996Z,12.52
2022-11-16T22:56:28.129Z,13.48
2022-11-16T22:58:54.529Z,13.75
2022-11-16T23:01:21.434Z,16.02
2022-11-16T23:03:48.462Z,12.50
2022-11-16T23:06:15.368Z,12.95
2022-11-16T23:08:41.915Z,13.70
2022-11-16T23:11:30.987Z,13.77
2022-11-16T23:14:16.690Z,11.23
2022-11-16T23:16:43.727Z,13.13
2022-11-16T23:19:31.274Z,15.07
2022-11-16T23:22:16.687Z,12.68
2022-11-16T23:25:02.375Z,12.32
2022-11-16T23:27:34.364Z,15.02
2022-11-16T23:30:06.437Z,13.77
2022-11-16T23:32:35.801Z,12.82
2022-11-16T23:35:03.176Z,13.38
2022-11-16T23:37:29.567Z,13.73
2022-11-16T23:39:56.009Z,15.20
2022-11-16T23:42:41.117Z,15.18
2022-11-16T23:45:07.855Z,14.73
2022-11-16T23:47:34.301Z,16.55
2022-11-16T23:50:00.726Z,13.57
2022-11-16T23:52:27.288Z,17.83
2022-11-16T23:54:53.697Z,18.02
2022-11-16T23:57:20.219Z,20.63
2022-11-16T23:59:46.647Z,17.05
